createdAt,value
2022-08-19T00:00:44.807Z,100135.96
2022-08-19T00:01:52.709Z,100141.53
2022-08-19T00:02:55.100Z,100137.92
2022-08-19T00:03:59.652Z,100140.70
2022-08-19T00:05:04.281Z,100142.66
2022-08-19T00:06:07.603Z,100137.09
2022-08-19T00:07:10.678Z,100146.28
2022-08-19T00:08:13.760Z,100152.98
2022-08-19T00:09:19.247Z,100154.95
2022-08-19T00:10:23.055Z,100163.30
2022-08-19T00:11:27.876Z,100154.64
2022-08-19T00:12:31.003Z,100163.82
2022-08-19T00:13:34.332Z,100169.88
2022-08-19T00:14:38.521Z,100169.88
2022-08-19T00:15:43.298Z,100171.84
2022-08-19T00:16:48.097Z,100177.11
2022-08-19T00:17:51.226Z,100164.83
2022-08-19T00:18:55.700Z,100164.83
2022-08-19T00:19:58.909Z,100177.62
2022-08-19T00:21:02.629Z,100174.84
2022-08-19T00:22:06.137Z,100179.28
2022-08-19T00:23:09.930Z,100170.09
2022-08-19T00:24:15.434Z,100176.49
2022-08-19T00:25:18.950Z,100180.08
2022-08-19T00:26:25.833Z,100180.90
2022-08-19T00:27:28.939Z,100171.72
2022-08-19T00:28:33.336Z,100183.69
2022-08-19T00:29:38.587Z,100170.09
2022-08-19T00:30:41.783Z,100165.96
2022-08-19T00:31:45.487Z,100173.80
2022-08-19T00:32:49.096Z,100167.73
2022-08-19T00:33:52.289Z,100171.97
2022-08-19T00:34:55.670Z,100171.14
2022-08-19T00:36:00.198Z,100167.86
2022-08-19T00:37:03.440Z,100165.08
2022-08-19T00:38:07.129Z,100156.17
2022-08-19T00:39:11.145Z,100160.91
2022-08-19T00:40:15.936Z,100162.87
2022-08-19T00:41:21.842Z,100161.74
2022-08-19T00:42:26.782Z,100167.31
2022-08-19T00:43:29.926Z,100166.21
2022-08-19T00:44:33.075Z,100169.00
2022-08-19T00:45:36.653Z,100165.08
2022-08-19T00:46:42.980Z,100169.52
2022-08-19T00:47:46.374Z,100163.95
2022-08-19T00:48:49.351Z,100158.38
2022-08-19T00:49:55.962Z,100168.35
2022-08-19T00:50:59.492Z,100163.61
2022-08-19T00:52:12.622Z,100167.22
2022-08-19T00:53:19.501Z,100164.44
2022-08-19T00:54:29.911Z,100166.09
2022-08-19T00:55:29.484Z,100164.44
2022-08-19T00:56:34.400Z,100171.66
2022-08-19T00:57:40.895Z,100174.45
2022-08-19T00:58:44.680Z,100171.66
2022-08-19T00:59:56.312Z,100166.09
2022-08-19T01:00:56.556Z,100171.66
2022-08-19T01:01:59.911Z,100175.27
2022-08-19T01:03:05.043Z,100167.73
2022-08-19T01:04:08.378Z,100169.39
2022-08-19T01:05:15.506Z,100166.61
2022-08-19T01:06:22.545Z,100170.22
2022-08-19T01:07:25.619Z,100166.27
2022-08-19T01:08:28.889Z,100163.48
2022-08-19T01:09:32.106Z,100165.44
2022-08-19T01:10:42.898Z,100160.20
2022-08-19T01:11:46.795Z,100166.91
2022-08-19T01:12:50.826Z,100168.35
2022-08-19T01:13:54.763Z,100169.83
2022-08-19T01:14:59.357Z,100165.66
2022-08-19T01:16:05.962Z,100166.30
2022-08-19T01:17:11.801Z,100171.05
2022-08-19T01:18:17.309Z,100165.78
2022-08-19T01:19:26.931Z,100162.52
2022-08-19T01:20:31.157Z,100173.13
2022-08-19T01:21:44.183Z,100165.91
2022-08-19T01:22:53.940Z,100164.59
2022-08-19T01:23:57.436Z,100168.81
2022-08-19T01:25:01.404Z,100159.94
2022-08-19T01:26:05.023Z,100156.66
2022-08-19T01:27:08.333Z,100164.50
2022-08-19T01:28:19.836Z,100162.02
2022-08-19T01:29:25.031Z,100171.53
2022-08-19T01:30:34.032Z,100169.88
2022-08-19T01:31:39.211Z,100165.44
2022-08-19T01:32:43.672Z,100167.70
2022-08-19T01:33:47.254Z,100161.30
2022-08-19T01:34:50.375Z,100157.70
2022-08-19T01:36:11.294Z,100164.92
2022-08-19T01:37:15.759Z,100162.13
2022-08-19T01:38:26.538Z,100163.59
2022-08-19T01:39:30.206Z,100161.12
2022-08-19T01:40:36.979Z,100158.64
2022-08-19T01:41:40.293Z,100157.81
2022-08-19T01:42:44.318Z,100156.19
2022-08-19T01:44:17.121Z,100158.15
2022-08-19T01:44:52.412Z,100157.33
2022-08-19T01:45:55.403Z,100154.84
2022-08-19T01:46:58.603Z,100154.84
2022-08-19T01:48:02.426Z,100151.23
2022-08-19T01:49:07.814Z,100150.73
2022-08-19T01:50:12.238Z,100149.91
2022-08-19T01:51:15.664Z,100149.09
2022-08-19T01:52:18.863Z,100142.69
2022-08-19T01:53:22.047Z,100149.91
2022-08-19T01:54:27.935Z,100145.97
2022-08-19T01:55:31.636Z,100144.02
2022-08-19T01:56:35.007Z,100143.70
2022-08-19T01:57:39.936Z,100147.02
2022-08-19T01:58:46.899Z,100148.67
2022-08-19T01:59:50.713Z,100146.67
2022-08-19T02:01:09.053Z,100154.73
2022-08-19T02:02:12.244Z,100149.98
2022-08-19T02:03:17.138Z,100149.98
2022-08-19T02:04:21.312Z,100150.81
2022-08-19T02:05:24.790Z,100159.47
2022-08-19T02:06:28.804Z,100155.86
2022-08-19T02:07:33.228Z,100156.68
2022-08-19T02:08:39.092Z,100153.41
2022-08-19T02:09:42.399Z,100150.93
2022-08-19T02:10:45.496Z,100152.88
2022-08-19T02:11:48.483Z,100153.52
2022-08-19T02:12:52.127Z,100156.61
2022-08-19T02:13:56.245Z,100151.34
2022-08-19T02:15:00.050Z,100150.52
2022-08-19T02:16:04.224Z,100154.44
2022-08-19T02:17:07.719Z,100149.70
2022-08-19T02:18:11.101Z,100148.87
2022-08-19T02:19:14.108Z,100148.05
2022-08-19T02:20:17.913Z,100152.81
2022-08-19T02:21:23.338Z,100156.39
2022-08-19T02:22:26.463Z,100146.91
2022-08-19T02:23:30.092Z,100153.30
2022-08-19T02:24:33.233Z,100153.00
2022-08-19T02:25:36.328Z,100151.88
2022-08-19T02:26:40.077Z,100157.11
2022-08-19T02:27:44.489Z,100154.32
2022-08-19T02:28:48.940Z,100154.32
2022-08-19T02:29:52.525Z,100153.52
2022-08-19T02:30:56.479Z,100150.73
2022-08-19T02:31:59.860Z,100151.05
2022-08-19T02:33:02.972Z,100144.66
2022-08-19T02:34:06.187Z,100146.61
2022-08-19T02:35:12.687Z,100141.87
2022-08-19T02:36:21.072Z,100146.61
2022-08-19T02:37:41.123Z,100144.34
2022-08-19T02:38:47.669Z,100152.36
2022-08-19T02:39:50.174Z,100148.45
2022-08-19T02:40:59.982Z,100162.06
2022-08-19T02:42:03.124Z,100153.71
2022-08-19T02:43:08.364Z,100157.62
2022-08-19T02:44:29.132Z,100158.76
2022-08-19T02:45:17.425Z,100152.36
2022-08-19T02:46:27.643Z,100141.56
2022-08-19T02:47:30.802Z,100149.91
2022-08-19T02:48:34.114Z,100145.48
2022-08-19T02:49:37.464Z,100152.17
2022-08-19T02:50:40.850Z,100148.87
2022-08-19T02:51:46.748Z,100146.72
2022-08-19T02:52:49.932Z,100152.59
2022-08-19T02:53:53.023Z,100155.68
2022-08-19T02:54:57.862Z,100159.63
2022-08-19T02:56:00.990Z,100161.58
2022-08-19T02:57:04.658Z,100159.10
2022-08-19T02:58:08.282Z,100158.27
2022-08-19T02:59:12.121Z,100154.66
2022-08-19T03:00:16.868Z,100161.36
2022-08-19T03:01:28.334Z,100157.75
2022-08-19T03:02:32.753Z,100154.17
2022-08-19T03:03:35.750Z,100163.31
2022-08-19T03:04:38.845Z,100161.36
2022-08-19T03:05:46.922Z,100157.45
2022-08-19T03:06:48.442Z,100160.75
2022-08-19T03:07:51.543Z,100162.08
2022-08-19T03:08:55.835Z,100159.81
2022-08-19T03:09:59.280Z,100165.57
2022-08-19T03:11:02.772Z,100165.57
2022-08-19T03:12:06.487Z,100168.58
2022-08-19T03:13:09.612Z,100161.88
2022-08-19T03:14:13.807Z,100168.23
2022-08-19T03:15:16.928Z,100161.88
2022-08-19T03:16:24.434Z,100162.67
2022-08-19T03:17:27.548Z,100161.05
2022-08-19T03:18:30.638Z,100158.56
2022-08-19T03:19:33.798Z,100160.00
2022-08-19T03:20:45.863Z,100163.13
2022-08-19T03:21:49.798Z,100159.81
2022-08-19T03:22:54.227Z,100166.52
2022-08-19T03:23:59.675Z,100155.68
2022-08-19T03:25:03.331Z,100154.89
2022-08-19T03:26:16.711Z,100162.41
2022-08-19T03:27:12.741Z,100171.06
2022-08-19T03:28:15.960Z,100165.50
2022-08-19T03:29:25.887Z,100175.50
2022-08-19T03:30:25.213Z,100166.02
2022-08-19T03:31:44.014Z,100162.91
2022-08-19T03:32:33.434Z,100167.34
2022-08-19T03:33:37.262Z,100172.60
2022-08-19T03:34:40.418Z,100166.20
2022-08-19T03:35:43.609Z,100168.99
2022-08-19T03:36:47.420Z,100169.82
2022-08-19T03:37:51.359Z,100167.86
2022-08-19T03:38:59.668Z,100177.04
2022-08-19T03:40:04.394Z,100171.78
2022-08-19T03:41:10.826Z,100173.73
2022-08-19T03:42:38.237Z,100177.34
2022-08-19T03:43:19.573Z,100184.56
2022-08-19T03:44:23.798Z,100172.30
2022-08-19T03:45:27.978Z,100176.70
2022-08-19T03:46:33.942Z,100180.84
2022-08-19T03:47:38.234Z,100181.36
2022-08-19T03:48:43.065Z,100183.20
2022-08-19T03:49:46.733Z,100183.20
2022-08-19T03:50:50.651Z,100186.48
2022-08-19T03:51:54.815Z,100177.00
2022-08-19T03:52:57.808Z,100187.01
2022-08-19T03:54:03.589Z,100177.83
2022-08-19T03:55:07.449Z,100185.54
2022-08-19T03:56:11.957Z,100188.33
2022-08-19T03:57:15.080Z,100187.20
2022-08-19T03:58:18.208Z,100188.84
2022-08-19T03:59:25.611Z,100185.77
2022-08-19T04:00:29.651Z,100196.26
2022-08-19T04:01:35.470Z,100188.42
2022-08-19T04:02:37.790Z,100193.36
2022-08-19T04:03:41.527Z,100189.44
2022-08-19T04:04:45.039Z,100199.97
2022-08-19T04:05:48.459Z,100199.33
2022-08-19T04:06:52.461Z,100201.17
2022-08-19T04:07:57.322Z,100202.52
2022-08-19T04:09:02.915Z,100199.09
2022-08-19T04:10:06.626Z,100205.73
2022-08-19T04:11:14.826Z,100202.30
2022-08-19T04:12:18.780Z,100202.00
2022-08-19T04:13:22.491Z,100200.53
2022-08-19T04:14:31.958Z,100207.76
2022-08-19T04:15:38.695Z,100209.41
2022-08-19T04:16:44.860Z,100209.10
2022-08-19T04:17:48.113Z,100203.19
2022-08-19T04:18:51.530Z,100203.72
2022-08-19T04:19:54.654Z,100201.45
2022-08-19T04:20:58.083Z,100196.36
2022-08-19T04:22:01.261Z,100199.66
2022-08-19T04:23:04.346Z,100208.52
2022-08-19T04:24:09.599Z,100196.23
2022-08-19T04:25:12.845Z,100205.11
2022-08-19T04:26:22.411Z,100198.89
2022-08-19T04:27:25.521Z,100200.55
2022-08-19T04:28:29.280Z,100204.98
2022-08-19T04:29:33.554Z,100211.91
2022-08-19T04:30:44.500Z,100202.72
2022-08-19T04:31:47.738Z,100202.07
2022-08-19T04:32:51.627Z,100210.13
2022-08-19T04:33:57.286Z,100199.80
2022-08-19T04:35:03.192Z,100203.41
2022-08-19T04:36:06.038Z,100205.86
2022-08-19T04:37:13.088Z,100201.94
2022-08-19T04:38:18.318Z,100199.16
2022-08-19T04:39:26.288Z,100200.80
2022-08-19T04:40:48.039Z,100206.38
2022-08-19T04:42:09.442Z,100207.73
2022-08-19T04:43:14.176Z,100212.14
2022-08-19T04:44:19.978Z,100212.66
2022-08-19T04:45:23.327Z,100205.94
2022-08-19T04:46:39.663Z,100216.78
2022-08-19T04:47:49.333Z,100222.02
2022-08-19T04:48:43.456Z,100218.09
2022-08-19T04:49:45.373Z,100221.41
2022-08-19T04:50:49.061Z,100223.85
2022-08-19T04:51:54.698Z,100229.43
2022-08-19T04:52:57.870Z,100220.75
2022-08-19T04:54:02.672Z,100221.27
2022-08-19T04:55:06.998Z,100222.09
2022-08-19T04:56:13.625Z,100222.92
2022-08-19T04:57:16.844Z,100224.55
2022-08-19T04:58:19.961Z,100221.76
2022-08-19T04:59:23.271Z,100221.76
2022-08-19T05:00:27.214Z,100221.76
2022-08-19T05:01:36.966Z,100215.38
2022-08-19T05:02:40.237Z,100219.31
2022-08-19T05:03:44.345Z,100228.81
2022-08-19T05:04:48.867Z,100226.33
2022-08-19T05:05:52.010Z,100233.05
2022-08-19T05:06:56.959Z,100250.94
2022-08-19T05:08:00.241Z,100245.67
2022-08-19T05:09:06.450Z,100245.67
2022-08-19T05:10:10.644Z,100236.48
2022-08-19T05:11:28.786Z,100233.17
2022-08-19T05:12:32.201Z,100233.17
2022-08-19T05:13:35.381Z,100234.31
2022-08-19T05:14:38.530Z,100240.71
2022-08-19T05:15:41.737Z,100235.14
2022-08-19T05:16:45.295Z,100233.17
2022-08-19T05:17:50.151Z,100229.56
2022-08-19T05:19:11.809Z,100243.20
2022-08-19T05:20:34.155Z,100235.96
2022-08-19T05:21:55.440Z,100235.96
2022-08-19T05:22:58.549Z,100234.00
2022-08-19T05:24:02.547Z,100228.73
2022-08-19T05:25:12.979Z,100232.34
2022-08-19T05:26:14.304Z,100233.17
2022-08-19T05:27:17.392Z,100223.98
2022-08-19T05:28:21.908Z,100227.59
2022-08-19T05:29:27.445Z,100234.00
2022-08-19T05:30:46.773Z,100231.21
2022-08-19T05:31:41.872Z,100233.17
2022-08-19T05:32:45.001Z,100231.21
2022-08-19T05:33:48.398Z,100244.02
2022-08-19T05:34:51.626Z,100233.17
2022-08-19T05:35:54.746Z,100238.44
2022-08-19T05:36:59.688Z,100245.98
2022-08-19T05:38:02.899Z,100247.12
2022-08-19T05:39:07.423Z,100250.73
2022-08-19T05:40:14.045Z,100236.79
2022-08-19T05:41:17.723Z,100249.59
2022-08-19T05:42:22.526Z,100239.27
2022-08-19T05:43:25.977Z,100241.75
2022-08-19T05:44:34.051Z,100251.73
2022-08-19T05:45:40.314Z,100249.77
2022-08-19T05:46:47.659Z,100243.06
2022-08-19T05:47:50.686Z,100244.72
2022-08-19T05:48:55.878Z,100245.54
2022-08-19T05:49:59.036Z,100233.56
2022-08-19T05:51:07.279Z,100234.08
2022-08-19T05:52:13.868Z,100238.83
2022-08-19T05:53:17.999Z,100232.91
2022-08-19T05:54:23.342Z,100235.70
2022-08-19T05:55:26.783Z,100241.28
2022-08-19T05:56:31.078Z,100242.94
2022-08-19T05:57:34.109Z,100242.94
2022-08-19T05:58:38.052Z,100248.51
2022-08-19T05:59:42.437Z,100245.41
2022-08-19T06:00:45.966Z,100249.86
2022-08-19T06:01:55.319Z,100245.10
2022-08-19T06:03:00.148Z,100249.55
2022-08-19T06:04:03.965Z,100249.55
2022-08-19T06:05:09.461Z,100242.80
2022-08-19T06:06:15.376Z,100248.38
2022-08-19T06:07:18.504Z,100257.60
2022-08-19T06:08:33.602Z,100257.60
2022-08-19T06:09:26.565Z,100249.23
2022-08-19T06:10:30.533Z,100246.14
2022-08-19T06:11:39.988Z,100245.83
2022-08-19T06:12:43.236Z,100250.23
2022-08-19T06:13:49.892Z,100255.51
2022-08-19T06:15:00.840Z,100251.58
2022-08-19T06:15:59.994Z,100256.02
2022-08-19T06:17:06.861Z,100253.23
2022-08-19T06:18:08.655Z,100246.52
2022-08-19T06:19:17.778Z,100240.59
2022-08-19T06:20:39.823Z,100240.29
2022-08-19T06:21:28.125Z,100241.12
2022-08-19T06:22:31.287Z,100234.41
2022-08-19T06:23:35.359Z,100235.54
2022-08-19T06:24:38.592Z,100238.84
2022-08-19T06:25:41.736Z,100240.81
2022-08-19T06:28:14.049Z,100247.70
2022-08-19T06:28:56.422Z,100245.73
2022-08-19T06:29:59.879Z,100253.28
2022-08-19T06:31:07.932Z,100249.66
2022-08-19T06:32:11.533Z,100253.28
2022-08-19T06:33:14.810Z,100249.35
2022-08-19T06:34:18.799Z,100255.76
2022-08-19T06:35:23.260Z,100251.00
2022-08-19T06:36:31.368Z,100251.83
2022-08-19T06:37:34.641Z,100256.27
2022-08-19T06:38:37.782Z,100252.31
2022-08-19T06:39:44.135Z,100255.10
2022-08-19T06:40:47.524Z,100255.62
2022-08-19T06:41:55.606Z,100254.48
2022-08-19T06:43:00.730Z,100255.80
2022-08-19T06:44:05.493Z,100253.83
2022-08-19T06:45:09.504Z,100257.14
2022-08-19T06:46:16.130Z,100258.79
2022-08-19T06:47:23.900Z,100252.38
2022-08-19T06:48:27.352Z,100252.38
2022-08-19T06:49:31.563Z,100256.00
2022-08-19T06:50:36.790Z,100252.38
2022-08-19T06:51:43.618Z,100252.69
2022-08-19T06:52:48.406Z,100256.83
2022-08-19T06:53:54.747Z,100260.09
2022-08-19T06:54:59.878Z,100264.55
2022-08-19T06:56:03.518Z,100253.89
2022-08-19T06:57:07.325Z,100256.38
2022-08-19T06:58:10.964Z,100256.03
2022-08-19T06:59:20.709Z,100248.17
2022-08-19T07:00:25.851Z,100249.83
2022-08-19T07:01:29.267Z,100252.27
2022-08-19T07:02:32.553Z,100250.00
2022-08-19T07:03:37.408Z,100254.13
2022-08-19T07:04:42.487Z,100253.47
2022-08-19T07:05:46.220Z,100254.81
2022-08-19T07:06:54.948Z,100258.08
2022-08-19T07:07:58.174Z,100259.42
2022-08-19T07:09:01.951Z,100251.53
2022-08-19T07:10:07.881Z,100260.11
2022-08-19T07:11:13.407Z,100253.03
2022-08-19T07:12:17.668Z,100253.27
2022-08-19T07:13:21.974Z,100256.23
2022-08-19T07:14:28.318Z,100247.19
2022-08-19T07:15:31.436Z,100259.70
2022-08-19T07:16:35.234Z,100258.24
2022-08-19T07:17:39.774Z,100255.93
2022-08-19T07:18:43.854Z,100257.58
2022-08-19T07:19:47.520Z,100257.27
2022-08-19T07:20:51.182Z,100254.13
2022-08-19T07:21:55.987Z,100255.47
2022-08-19T07:23:00.164Z,100249.22
2022-08-19T07:24:07.129Z,100249.41
2022-08-19T07:25:10.748Z,100248.75
2022-08-19T07:26:28.084Z,100250.91
2022-08-19T07:27:33.576Z,100254.69
2022-08-19T07:28:38.673Z,100253.39
2022-08-19T07:29:43.644Z,100254.37
2022-08-19T07:30:47.292Z,100252.25
2022-08-19T07:31:51.701Z,100246.83
2022-08-19T07:32:54.906Z,100252.28
2022-08-19T07:33:57.888Z,100260.55
2022-08-19T07:35:03.239Z,100260.38
2022-08-19T07:36:08.371Z,100269.43
2022-08-19T07:37:11.853Z,100258.08
2022-08-19T07:38:16.356Z,100267.61
2022-08-19T07:39:23.087Z,100258.27
2022-08-19T07:40:27.352Z,100270.90
2022-08-19T07:41:31.797Z,100271.55
2022-08-19T07:42:35.013Z,100272.22
2022-08-19T07:43:38.731Z,100274.05
2022-08-19T07:44:42.698Z,100271.91
2022-08-19T07:45:47.668Z,100273.70
2022-08-19T07:46:54.064Z,100279.45
2022-08-19T07:47:57.207Z,100286.05
2022-08-19T07:49:00.846Z,100275.04
2022-08-19T07:50:07.907Z,100276.84
2022-08-19T07:51:12.170Z,100278.14
2022-08-19T07:52:17.265Z,100281.11
2022-08-19T07:53:20.464Z,100278.46
2022-08-19T07:54:26.243Z,100282.59
2022-08-19T07:55:42.684Z,100287.83
2022-08-19T07:56:34.971Z,100279.94
2022-08-19T07:57:39.284Z,100282.41
2022-08-19T07:58:44.927Z,100294.43
2022-08-19T07:59:48.260Z,100287.69
2022-08-19T08:00:51.545Z,100288.48
2022-08-19T08:01:55.537Z,100292.92
2022-08-19T08:02:58.688Z,100281.73
2022-08-19T08:04:20.407Z,100286.50
2022-08-19T08:05:44.928Z,100278.93
2022-08-19T08:07:06.318Z,100282.88
2022-08-19T08:08:27.994Z,100286.86
2022-08-19T08:09:34.734Z,100286.86
2022-08-19T08:10:38.497Z,100285.20
2022-08-19T08:13:09.523Z,100279.25
2022-08-19T08:14:04.726Z,100289.98
2022-08-19T08:15:12.483Z,100285.20
2022-08-19T08:16:16.896Z,100288.83
2022-08-19T08:17:31.167Z,100279.28
2022-08-19T08:18:30.350Z,100277.28
2022-08-19T08:19:33.734Z,100280.58
2022-08-19T08:20:36.990Z,100285.86
2022-08-19T08:23:04.931Z,100282.38
2022-08-19T08:24:08.380Z,100280.08
2022-08-19T08:25:15.077Z,100278.92
2022-08-19T08:26:19.298Z,100288.97
2022-08-19T08:27:23.696Z,100284.99
2022-08-19T08:28:55.899Z,100286.64
2022-08-19T08:29:58.998Z,100283.52
2022-08-19T08:31:09.509Z,100282.02
2022-08-19T08:32:14.982Z,100287.29
2022-08-19T08:33:32.640Z,100293.39
2022-08-19T08:34:25.680Z,100283.84
2022-08-19T08:35:29.081Z,100289.08
2022-08-19T08:36:34.091Z,100284.80
2022-08-19T08:37:37.631Z,100292.88
2022-08-19T08:38:42.575Z,100286.27
2022-08-19T08:39:45.844Z,100292.87
2022-08-19T08:40:56.401Z,100288.23
2022-08-19T08:42:10.019Z,100281.97
2022-08-19T08:43:34.660Z,100285.73
2022-08-19T08:44:44.152Z,100290.66
2022-08-19T08:45:53.620Z,100286.88
2022-08-19T08:47:00.961Z,100285.36
2022-08-19T08:48:07.862Z,100285.53
2022-08-19T08:49:28.446Z,100296.05
2022-08-19T08:50:36.663Z,100281.84
2022-08-19T08:52:49.725Z,100271.59
2022-08-19T08:53:55.969Z,100278.52
2022-08-19T08:55:02.801Z,100278.66
2022-08-19T08:56:11.301Z,100284.42
2022-08-19T08:57:40.648Z,100279.78
2022-08-19T08:58:43.871Z,100288.81
2022-08-19T08:59:52.189Z,100278.92
2022-08-19T09:00:55.377Z,100279.91
2022-08-19T09:01:59.030Z,100278.39
2022-08-19T09:03:04.189Z,100281.69
2022-08-19T09:04:08.160Z,100284.95
2022-08-19T09:05:16.822Z,100284.29
2022-08-19T09:06:22.192Z,100275.55
2022-08-19T09:07:47.689Z,100285.23
2022-08-19T09:09:12.076Z,100278.97
2022-08-19T09:10:28.852Z,100285.04
2022-08-19T09:11:53.472Z,100284.70
2022-08-19T09:13:22.698Z,100282.39
2022-08-19T09:14:50.784Z,100284.17
2022-08-19T09:16:04.798Z,100281.16
2022-08-19T09:17:10.249Z,100283.27
2022-08-19T09:18:18.157Z,100278.27
2022-08-19T09:19:18.336Z,100283.22
2022-08-19T09:20:26.236Z,100276.91
2022-08-19T09:21:30.592Z,100280.53
2022-08-19T09:22:37.442Z,100279.05
2022-08-19T09:23:41.454Z,100273.06
2022-08-19T09:24:46.154Z,100276.36
2022-08-19T09:25:49.410Z,100276.02
2022-08-19T09:26:53.311Z,100277.34
2022-08-19T09:28:02.633Z,100275.02
2022-08-19T09:29:04.598Z,100276.67
2022-08-19T09:30:10.450Z,100275.02
2022-08-19T09:31:15.198Z,100275.02
2022-08-19T09:32:26.352Z,100268.59
2022-08-19T09:33:23.731Z,100280.63
2022-08-19T09:34:26.734Z,100273.86
2022-08-19T09:35:31.207Z,100274.31
2022-08-19T09:36:36.547Z,100272.82
2022-08-19T09:37:40.474Z,100273.31
2022-08-19T09:38:44.848Z,100266.51
2022-08-19T09:39:48.387Z,100263.36
2022-08-19T09:40:52.895Z,100263.36
2022-08-19T09:41:56.103Z,100270.63
2022-08-19T09:43:02.922Z,100269.47
2022-08-19T09:44:07.935Z,100263.03
2022-08-19T09:45:13.133Z,100274.26
2022-08-19T09:46:19.480Z,100271.45
2022-08-19T09:47:24.508Z,100269.80
2022-08-19T09:48:27.756Z,100271.78
2022-08-19T09:49:32.225Z,100273.31
2022-08-19T09:50:37.823Z,100274.47
2022-08-19T09:51:41.371Z,100268.70
2022-08-19T09:52:55.432Z,100266.60
2022-08-19T09:53:51.845Z,100270.56
2022-08-19T09:54:56.108Z,100264.80
2022-08-19T09:55:59.299Z,100270.26
2022-08-19T09:57:04.706Z,100268.64
2022-08-19T09:58:07.754Z,100264.19
2022-08-19T09:59:12.483Z,100267.82
2022-08-19T10:00:15.865Z,100260.22
2022-08-19T10:01:21.838Z,100264.64
2022-08-19T10:02:25.299Z,100260.22
2022-08-19T10:03:31.454Z,100265.02
2022-08-19T10:04:52.874Z,100264.19
2022-08-19T10:05:58.029Z,100257.75
2022-08-19T10:07:01.795Z,100263.36
2022-08-19T10:08:04.813Z,100268.16
2022-08-19T10:09:11.294Z,100264.52
2022-08-19T10:10:16.106Z,100262.88
2022-08-19T10:11:27.817Z,100260.07
2022-08-19T10:12:26.092Z,100258.91
2022-08-19T10:13:31.103Z,100262.55
2022-08-19T10:14:35.031Z,100257.27
2022-08-19T10:15:47.254Z,100256.93
2022-08-19T10:16:45.663Z,100262.55
2022-08-19T10:17:55.117Z,100259.73
2022-08-19T10:18:58.924Z,100262.55
2022-08-19T10:20:00.015Z,100262.55
2022-08-19T10:21:09.657Z,100257.75
2022-08-19T10:22:15.346Z,100259.73
2022-08-19T10:23:21.331Z,100259.73
2022-08-19T10:24:26.330Z,100263.36
2022-08-19T10:25:34.344Z,100256.93
2022-08-19T10:26:42.356Z,100259.41
2022-08-19T10:27:51.322Z,100252.60
2022-08-19T10:28:51.057Z,100256.23
2022-08-19T10:29:54.337Z,100250.62
2022-08-19T10:30:58.196Z,100256.23
2022-08-19T10:32:03.528Z,100250.62
2022-08-19T10:33:11.095Z,100255.07
2022-08-19T10:34:17.559Z,100253.91
2022-08-19T10:35:21.808Z,100251.11
2022-08-19T10:36:25.453Z,100255.89
2022-08-19T10:37:31.484Z,100255.07
2022-08-19T10:38:37.059Z,100244.19
2022-08-19T10:39:43.070Z,100244.19
2022-08-19T10:40:45.632Z,100245.38
2022-08-19T10:41:48.747Z,100246.53
2022-08-19T10:42:51.714Z,100244.88
2022-08-19T10:43:58.378Z,100244.06
2022-08-19T10:45:06.393Z,100248.52
2022-08-19T10:46:14.072Z,100242.08
2022-08-19T10:47:25.033Z,100234.48
2022-08-19T10:48:22.922Z,100235.31
2022-08-19T10:49:26.019Z,100246.20
2022-08-19T10:50:49.750Z,100243.84
2022-08-19T10:52:11.386Z,100238.72
2022-08-19T10:53:16.524Z,100244.83
2022-08-19T10:54:31.129Z,100241.34
2022-08-19T10:55:43.212Z,100236.56
2022-08-19T10:56:53.170Z,100243.45
2022-08-19T10:58:03.647Z,100236.67
2022-08-19T10:59:03.407Z,100235.18
2022-08-19T11:00:07.512Z,100237.62
2022-08-19T11:01:10.583Z,100240.09
2022-08-19T11:02:13.786Z,100242.56
2022-08-19T11:03:16.964Z,100241.40
2022-08-19T11:04:20.660Z,100244.20
2022-08-19T11:05:24.437Z,100243.05
2022-08-19T11:06:27.965Z,100243.50
2022-08-19T11:07:31.417Z,100235.08
2022-08-19T11:08:37.947Z,100228.30
2022-08-19T11:09:42.786Z,100229.62
2022-08-19T11:10:48.032Z,100229.25
2022-08-19T11:11:51.891Z,100226.92
2022-08-19T11:12:55.818Z,100227.75
2022-08-19T11:13:59.202Z,100227.87
2022-08-19T11:15:02.491Z,100231.16
2022-08-19T11:16:13.609Z,100219.22
2022-08-19T11:17:17.155Z,100221.69
2022-08-19T11:18:20.091Z,100224.16
2022-08-19T11:19:24.167Z,100218.17
2022-08-19T11:20:27.917Z,100217.01
2022-08-19T11:21:34.134Z,100221.47
2022-08-19T11:22:41.546Z,100218.31
2022-08-19T11:23:42.470Z,100218.77
2022-08-19T11:24:45.696Z,100217.27
2022-08-19T11:25:50.063Z,100219.73
2022-08-19T11:26:59.489Z,100223.00
2022-08-19T11:28:03.016Z,100224.64
2022-08-19T11:29:09.713Z,100224.30
2022-08-19T11:30:14.384Z,100223.14
2022-08-19T11:31:20.796Z,100221.16
2022-08-19T11:32:23.945Z,100224.75
2022-08-19T11:33:27.113Z,100221.61
2022-08-19T11:34:31.451Z,100222.77
2022-08-19T11:35:34.966Z,100221.61
2022-08-19T11:36:41.066Z,100220.78
2022-08-19T11:37:44.440Z,100219.14
2022-08-19T11:38:49.209Z,100221.16
2022-08-19T11:39:53.963Z,100219.51
2022-08-19T11:40:59.753Z,100219.02
2022-08-19T11:42:06.474Z,100211.77
2022-08-19T11:43:09.837Z,100214.94
2022-08-19T11:44:14.444Z,100213.30
2022-08-19T11:45:17.752Z,100212.14
2022-08-19T11:46:21.698Z,100220.56
2022-08-19T11:47:24.900Z,100212.14
2022-08-19T11:48:28.025Z,100214.57
2022-08-19T11:49:31.247Z,100215.05
2022-08-19T11:50:35.132Z,100206.29
2022-08-19T11:51:38.236Z,100212.73
2022-08-19T11:52:41.381Z,100212.36
2022-08-19T11:53:44.915Z,100204.75
2022-08-19T11:54:48.018Z,100202.77
2022-08-19T11:55:54.328Z,100208.05
2022-08-19T11:56:57.868Z,100204.92
2022-08-19T11:58:01.898Z,100209.02
2022-08-19T11:59:05.320Z,100204.70
2022-08-19T12:00:11.108Z,100205.63
2022-08-19T12:01:16.472Z,100202.92
2022-08-19T12:02:19.681Z,100197.79
2022-08-19T12:03:23.075Z,100205.98
2022-08-19T12:04:26.242Z,100206.91
2022-08-19T12:05:29.335Z,100211.84
2022-08-19T12:06:34.722Z,100208.66
2022-08-19T12:07:37.836Z,100215.59
2022-08-19T12:08:42.732Z,100205.17
2022-08-19T12:09:46.076Z,100200.38
2022-08-19T12:10:51.464Z,100198.83
2022-08-19T12:11:54.799Z,100199.66
2022-08-19T12:12:59.000Z,100201.30
2022-08-19T12:14:02.270Z,100208.56
2022-08-19T12:15:06.276Z,100200.95
2022-08-19T12:16:12.826Z,100196.50
2022-08-19T12:17:15.976Z,100198.14
2022-08-19T12:18:19.063Z,100201.78
2022-08-19T12:19:22.856Z,100203.39
2022-08-19T12:20:26.767Z,100200.58
2022-08-19T12:21:32.015Z,100207.84
2022-08-19T12:22:35.933Z,100207.84
2022-08-19T12:23:40.230Z,100205.03
2022-08-19T12:24:43.857Z,100203.05
2022-08-19T12:25:50.771Z,100205.86
2022-08-19T12:26:55.950Z,100201.88
2022-08-19T12:28:01.649Z,100202.70
2022-08-19T12:29:04.878Z,100197.91
2022-08-19T12:30:11.511Z,100202.70
2022-08-19T12:31:15.037Z,100195.09
2022-08-19T12:32:18.213Z,100204.34